Time;durP1;ratioP1;P1;durP2;ratioP2;P2;SDS_P1;SDS_P2;PMS_P1;PMS_P2;Temp;Humidity;BMP_temperature;BMP_pressure;BME280_temperature;BME280_humidity;BME280_pressure;Samples;Min_cycle;Max_cycle;Signal;HPM_P1;HPM_P2
2022/03/25 00:04:01;;;;;;;121.97;75.47;;;;;;;5.37;100.00;103096.78;6183478;23;20031;-71
2022/03/25 00:06:30;;;;;;;126.90;71.88;;;;;;;5.37;100.00;103098.47;6209162;23;20528;-71
2022/03/25 00:08:58;;;;;;;116.43;70.45;;;;;;;5.33;100.00;103100.03;6244986;23;20023;-72
2022/03/25 00:11:27;;;;;;;120.05;70.47;;;;;;;5.34;100.00;103107.03;6218689;23;20123;-71
2022/03/25 00:13:55;;;;;;;122.93;72.70;;;;;;;5.37;100.00;103106.31;6181612;23;20023;-72
2022/03/25 00:16:24;;;;;;;120.85;72.50;;;;;;;5.37;100.00;103106.31;6242556;23;20059;-72
2022/03/25 00:18:54;;;;;;;120.95;70.72;;;;;;;5.37;100.00;103109.84;6246997;23;20027;-71
2022/03/25 00:21:22;;;;;;;134.27;78.03;;;;;;;5.39;100.00;103112.56;6240036;23;20012;-72
2022/03/25 00:23:50;;;;;;;124.38;74.32;;;;;;;5.38;100.00;103106.41;6247660;23;20468;-72
2022/03/25 00:26:19;;;;;;;115.32;66.78;;;;;;;5.38;100.00;103109.03;6242243;23;20016;-72
2022/03/25 00:28:48;;;;;;;114.38;67.97;;;;;;;5.39;100.00;103108.25;6234242;23;20016;-71
2022/03/25 00:31:16;;;;;;;119.05;70.45;;;;;;;5.39;100.00;103115.19;6243357;23;20016;-72
2022/03/25 00:33:49;;;;;;;107.20;65.97;;;;;;;5.41;100.00;103104.00;6221938;23;20024;-72
2022/03/25 00:36:18;;;;;;;113.13;66.88;;;;;;;5.42;100.00;103104.91;6213242;23;20032;-72
2022/03/25 00:38:47;;;;;;;115.85;70.55;;;;;;;5.40;100.00;103109.13;6221674;23;20019;-72
2022/03/25 00:41:16;;;;;;;105.13;65.60;;;;;;;5.38;100.00;103100.28;6215620;23;20233;-73
2022/03/25 00:43:46;;;;;;;114.90;68.15;;;;;;;5.38;100.00;103102.91;6198167;23;20705;-72
2022/03/25 00:46:15;;;;;;;108.30;66.38;;;;;;;5.38;100.00;103113.38;6243439;23;20020;-73
2022/03/25 00:48:45;;;;;;;107.95;64.05;;;;;;;5.38;100.00;103110.75;6221875;23;20016;-72
2022/03/25 00:51:14;;;;;;;106.80;63.28;;;;;;;5.37;100.00;103095.84;6216203;23;20420;-73
2022/03/25 00:53:42;;;;;;;112.35;67.13;;;;;;;5.33;100.00;103102.66;6216563;23;20020;-72
2022/03/25 00:56:12;;;;;;;106.13;63.88;;;;;;;5.26;100.00;103105.69;6217028;23;20019;-73
2022/03/25 00:58:40;;;;;;;105.82;64.72;;;;;;;5.18;100.00;103106.91;6221685;23;20461;-73
2022/03/25 01:01:08;;;;;;;98.25;62.42;;;;;;;5.10;100.00;103113.38;6203103;23;20019;-73
2022/03/25 01:03:37;;;;;;;100.00;64.28;;;;;;;5.01;100.00;103104.19;6215589;23;20484;-72
2022/03/25 01:06:05;;;;;;;100.63;61.20;;;;;;;4.94;100.00;103117.66;6213137;23;20021;-73
2022/03/25 01:08:35;;;;;;;97.00;61.83;;;;;;;4.89;100.00;103116.47;6197729;23;20035;-72
2022/03/25 01:11:06;;;;;;;106.75;65.10;;;;;;;4.84;100.00;103112.69;6188382;23;20016;-73
2022/03/25 01:13:34;;;;;;;104.70;63.05;;;;;;;4.79;100.00;103111.47;6218368;23;20025;-72
2022/03/25 01:16:05;;;;;;;100.82;60.75;;;;;;;4.74;100.00;103116.41;6151724;23;20028;-73
2022/03/25 01:18:34;;;;;;;;;;;;;;;4.68;100.00;103109.06;6182313;23;20021;-72
2022/03/25 01:21:02;;;;;;;99.53;60.67;;;;;;;4.66;100.00;103115.03;6190266;23;19916;-73
2022/03/25 01:23:31;;;;;;;91.93;57.78;;;;;;;4.61;100.00;103112.13;6216848;23;20493;-72
2022/03/25 01:25:59;;;;;;;103.72;61.00;;;;;;;4.57;100.00;103117.94;6212248;23;20021;-73
2022/03/25 01:28:32;;;;;;;102.47;59.63;;;;;;;4.48;100.00;103112.16;6190171;23;20213;-72
2022/03/25 01:31:03;;;;;;;90.50;56.55;;;;;;;4.41;100.00;103121.28;6192034;23;20052;-73
2022/03/25 01:33:37;;;;;;;95.53;57.50;;;;;;;4.36;100.00;103119.16;6218172;23;20029;-73
2022/03/25 01:36:06;;;;;;;84.43;54.25;;;;;;;4.29;100.00;103110.94;6203747;23;20024;-73
2022/03/25 01:38:36;;;;;;;92.32;56.45;;;;;;;4.24;100.00;103114.97;6219042;23;20020;-73
2022/03/25 01:41:04;;;;;;;90.95;57.20;;;;;;;4.18;100.00;103109.34;6209693;23;20021;-73
2022/03/25 01:43:33;;;;;;;90.13;54.45;;;;;;;4.16;100.00;103113.56;6181258;23;20021;-73
2022/03/25 01:46:01;;;;;;;86.45;56.50;;;;;;;4.11;100.00;103107.13;6199774;23;20029;-73
2022/03/25 01:48:30;;;;;;;89.63;54.45;;;;;;;4.07;100.00;103108.63;6215608;23;20017;-73
2022/03/25 01:51:00;;;;;;;85.25;53.10;;;;;;;4.03;100.00;103109.25;6214544;23;20024;-73
2022/03/25 01:53:29;;;;;;;84.18;54.88;;;;;;;3.99;100.00;103107.25;6216282;23;20194;-73
2022/03/25 01:56:00;;;;;;;84.05;51.47;;;;;;;3.96;100.00;103103.50;6211274;23;20021;-72
2022/03/25 01:58:30;;;;;;;85.05;52.22;;;;;;;3.93;100.00;103103.31;6214809;23;20013;-73
2022/03/25 02:01:02;;;;;;;87.72;54.67;;;;;;;3.89;100.00;103092.69;6211406;23;20028;-73
2022/03/25 02:03:31;;;;;;;82.00;53.00;;;;;;;3.86;100.00;103095.06;6226146;23;20024;-73
2022/03/25 02:06:00;;;;;;;79.25;50.85;;;;;;;3.80;100.00;103094.69;6170745;23;20020;-73
2022/03/25 02:08:29;;;;;;;76.97;51.50;;;;;;;3.77;100.00;103094.47;6184881;23;20020;-73
2022/03/25 02:10:58;;;;;;;80.78;51.47;;;;;;;3.75;100.00;103095.16;6177276;23;20334;-73
2022/03/25 02:13:28;;;;;;;;;;;;;;;3.71;100.00;103088.84;6195296;23;20020;-73
2022/03/25 02:16:01;;;;;;;80.55;49.63;;;;;;;3.67;100.00;103094.66;6219834;23;19916;-73
2022/03/25 02:18:30;;;;;;;78.88;50.28;;;;;;;3.64;100.00;103097.03;6229296;23;20034;-73
2022/03/25 02:20:59;;;;;;;77.38;49.78;;;;;;;3.60;100.00;103089.81;6183921;23;20027;-73
2022/03/25 02:23:28;;;;;;;86.93;50.50;;;;;;;3.58;100.00;103088.81;6184561;23;20609;-73
2022/03/25 02:25:57;;;;;;;84.00;52.00;;;;;;;3.56;100.00;103083.50;6216614;23;20345;-73
2022/03/25 02:28:26;;;;;;;80.25;51.33;;;;;;;3.55;100.00;103091.19;6208585;23;20324;-73
2022/03/25 02:30:59;;;;;;;85.32;50.90;;;;;;;3.52;100.00;103086.69;6171082;23;20023;-73
2022/03/25 02:33:28;;;;;;;83.75;50.70;;;;;;;3.49;100.00;103087.38;6181826;23;20138;-73
2022/03/25 02:35:56;;;;;;;77.93;49.10;;;;;;;3.47;100.00;103081.16;6247262;23;20024;-73
2022/03/25 02:38:24;;;;;;;80.65;49.97;;;;;;;3.44;100.00;103087.84;6169146;23;20681;-73
2022/03/25 02:40:55;;;;;;;86.63;50.65;;;;;;;3.41;100.00;103088.56;6220272;23;20020;-73
2022/03/25 02:43:29;;;;;;;80.45;48.78;;;;;;;3.38;100.00;103088.34;6195639;23;20020;-73
2022/03/25 02:46:04;;;;;;;74.88;50.10;;;;;;;3.35;100.00;103082.94;6219175;23;20424;-73
2022/03/25 02:48:34;;;;;;;73.95;47.00;;;;;;;3.32;100.00;103083.63;6221122;23;20472;-73
2022/03/25 02:51:02;;;;;;;78.50;48.80;;;;;;;3.29;100.00;103085.13;6204672;23;20031;-73
2022/03/25 02:53:32;;;;;;;75.00;47.90;;;;;;;3.26;100.00;103087.53;6220914;23;20027;-73
2022/03/25 02:56:00;;;;;;;81.63;49.63;;;;;;;3.24;100.00;103083.91;6245144;23;20371;-73
2022/03/25 02:58:28;;;;;;;75.90;48.22;;;;;;;3.21;100.00;103086.28;6245763;23;20229;-73
2022/03/25 03:00:57;;;;;;;80.38;49.03;;;;;;;3.17;100.00;103079.97;6247716;23;20012;-73
2022/03/25 03:03:25;;;;;;;81.55;47.83;;;;;;;3.15;100.00;103075.44;6194962;23;20111;-73
2022/03/25 03:05:54;;;;;;;77.57;48.33;;;;;;;3.13;100.00;103083.16;6171975;23;20021;-73
2022/03/25 03:08:23;;;;;;;73.65;46.92;;;;;;;3.10;100.00;103072.50;6148542;23;20029;-73
2022/03/25 03:10:52;;;;;;;76.78;48.47;;;;;;;3.08;100.00;103082.84;6186927;23;20017;-73
2022/03/25 03:13:20;;;;;;;78.65;47.72;;;;;;;3.07;100.00;103070.59;6168693;23;20235;-73
2022/03/25 03:15:49;;;;;;;73.00;45.95;;;;;;;3.05;100.00;103071.31;6150729;23;20020;-73
2022/03/25 03:18:20;;;;;;;70.07;45.65;;;;;;;3.03;100.00;103073.81;6205778;23;20044;-73
2022/03/25 03:20:48;;;;;;;72.50;46.33;;;;;;;3.02;100.00;103082.41;6167208;23;20831;-73
2022/03/25 03:23:17;;;;;;;71.70;45.78;;;;;;;3.00;100.00;103086.59;6181061;23;20032;-73
2022/03/25 03:25:46;;;;;;;78.20;46.65;;;;;;;3.00;100.00;103083.09;6186544;23;20013;-73
2022/03/25 03:28:14;;;;;;;71.35;45.00;;;;;;;2.98;100.00;103079.47;6174671;23;20352;-73
2022/03/25 03:30:43;;;;;;;67.40;42.35;;;;;;;2.95;100.00;103080.19;6187666;23;20342;-73
2022/03/25 03:33:12;;;;;;;71.15;43.47;;;;;;;2.93;100.00;103079.19;6181349;23;20025;-74
2022/03/25 03:35:41;;;;;;;64.00;41.22;;;;;;;2.90;100.00;103077.25;6185153;23;20024;-73
2022/03/25 03:38:09;;;;;;;64.93;42.65;;;;;;;2.86;100.00;103079.53;6170480;23;20025;-73
2022/03/25 03:40:38;;;;;;;65.65;41.08;;;;;;;2.82;100.00;103083.63;6161585;23;20028;-73
2022/03/25 03:43:07;;;;;;;60.63;41.10;;;;;;;2.80;100.00;103084.28;6183457;23;20028;-73
2022/03/25 03:45:35;;;;;;;64.82;40.13;;;;;;;2.76;100.00;103083.19;6181366;23;20020;-73
2022/03/25 03:48:04;;;;;;;63.10;39.08;;;;;;;2.72;100.00;103081.16;6182827;23;20025;-73
2022/03/25 03:50:32;;;;;;;60.97;39.85;;;;;;;2.69;100.00;103083.56;6185731;23;20012;-73
2022/03/25 03:53:00;;;;;;;67.15;39.75;;;;;;;2.66;100.00;103075.50;6170841;23;20366;-73
2022/03/25 03:55:30;;;;;;;64.28;39.22;;;;;;;2.65;100.00;103079.81;6160820;23;20306;-73
2022/03/25 03:58:17;;;;;;;57.55;38.30;;;;;;;2.63;100.00;103076.22;6180492;23;20239;-73
2022/03/25 04:00:45;;;;;;;55.40;35.83;;;;;;;2.60;100.00;103080.28;6182333;23;20025;-73
2022/03/25 04:03:14;;;;;;;57.50;37.95;;;;;;;2.57;100.00;103083.59;6180637;23;20146;-73
2022/03/25 04:05:44;;;;;;;59.45;35.58;;;;;;;2.54;100.00;103094.66;6164970;23;20342;-73
2022/03/25 04:08:12;;;;;;;52.72;35.28;;;;;;;2.53;100.00;103081.53;6198540;23;20217;-73
2022/03/25 04:10:41;;;;;;;52.78;32.70;;;;;;;2.52;100.00;103088.44;6216707;23;20021;-73
2022/03/25 04:13:10;;;;;;;53.50;34.15;;;;;;;2.49;100.00;103083.00;6210454;23;20020;-73
2022/03/25 04:15:38;;;;;;;51.75;33.65;;;;;;;2.47;100.00;103088.91;6217469;23;20032;-73
2022/03/25 04:18:08;;;;;;;51.78;34.03;;;;;;;2.43;100.00;103092.97;6209247;23;20031;-73
2022/03/25 04:20:37;;;;;;;48.40;31.58;;;;;;;2.42;100.00;103100.66;6190741;23;20017;-73
2022/03/25 04:23:05;;;;;;;54.65;34.38;;;;;;;2.40;100.00;103084.03;6198838;23;20017;-73
2022/03/25 04:25:34;;;;;;;51.30;33.67;;;;;;;2.39;100.00;103096.16;6215411;23;20036;-73
2022/03/25 04:28:02;;;;;;;50.67;32.65;;;;;;;2.36;100.00;103095.03;6212890;23;20020;-73
2022/03/25 04:30:34;;;;;;;53.70;34.08;;;;;;;2.33;100.00;103090.53;6176687;23;20016;-73
2022/03/25 04:33:02;;;;;;;;;;;;;;;2.29;100.00;103084.19;6209339;23;20349;-73
2022/03/25 04:35:35;;;;;;;52.55;32.17;;;;;;;2.28;100.00;103090.16;6200537;23;19920;-73
2022/03/25 04:38:04;;;;;;;54.58;33.47;;;;;;;2.27;100.00;103092.66;6178815;23;20024;-73
2022/03/25 04:40:34;;;;;;;47.75;31.73;;;;;;;2.24;100.00;103098.53;6212611;23;20017;-74
2022/03/25 04:43:02;;;;;;;48.25;31.25;;;;;;;2.24;100.00;103095.94;6212516;23;20016;-74
2022/03/25 04:45:32;;;;;;;52.70;33.72;;;;;;;2.24;100.00;103100.25;6205279;23;20020;-74
2022/03/25 04:48:00;;;;;;;55.25;33.15;;;;;;;2.24;100.00;103095.94;6213036;23;20047;-72
2022/03/25 04:50:29;;;;;;;48.00;31.63;;;;;;;2.23;100.00;103094.16;6216114;23;20377;-71
2022/03/25 04:52:58;;;;;;;46.38;31.27;;;;;;;2.23;100.00;103095.81;6186781;23;20016;-74
2022/03/25 04:55:27;;;;;;;52.10;34.47;;;;;;;2.22;100.00;103100.13;6210711;23;20541;-74
2022/03/25 04:57:56;;;;;;;52.17;32.92;;;;;;;2.23;100.00;103101.97;6215758;23;20259;-74
2022/03/25 05:00:30;;;;;;;47.80;32.28;;;;;;;2.22;100.00;103100.13;6215384;23;20301;-74
2022/03/25 05:02:59;;;;;;;55.60;33.65;;;;;;;2.21;100.00;103098.34;6211914;23;20458;-73
2022/03/25 05:05:27;;;;;;;57.20;34.22;;;;;;;2.21;100.00;103098.34;6215264;23;20638;-73
2022/03/25 05:07:56;;;;;;;51.20;34.30;;;;;;;2.20;100.00;103104.31;6191223;23;20028;-74
2022/03/25 05:10:24;;;;;;;54.95;35.67;;;;;;;2.19;100.00;103104.22;6201512;23;20293;-74
2022/03/25 05:12:52;;;;;;;51.63;34.67;;;;;;;2.19;100.00;103097.31;6218781;23;20023;-74
2022/03/25 05:15:21;;;;;;;59.92;36.63;;;;;;;2.22;100.00;103107.03;6179182;23;20035;-73
2022/03/25 05:17:51;;;;;;;62.17;37.47;;;;;;;2.24;100.00;103101.16;6203958;23;20017;-73
2022/03/25 05:20:22;;;;;;;56.58;34.15;;;;;;;2.25;100.00;103105.56;6189422;23;20016;-74
2022/03/25 05:22:51;;;;;;;55.92;34.30;;;;;;;2.27;100.00;103101.38;6208942;23;20025;-73
2022/03/25 05:25:20;;;;;;;56.08;36.13;;;;;;;2.27;100.00;103110.88;6199723;23;20485;-73
2022/03/25 05:27:51;;;;;;;55.17;35.83;;;;;;;2.28;100.00;103110.97;6216781;23;20016;-74
2022/03/25 05:30:22;;;;;;;54.15;33.55;;;;;;;2.26;100.00;103115.19;6214838;23;20021;-73
2022/03/25 05:32:51;;;;;;;54.13;33.65;;;;;;;2.28;100.00;103113.59;6216806;23;20012;-73
2022/03/25 05:35:22;;;;;;;55.15;35.85;;;;;;;2.29;100.00;103118.00;6211111;23;20035;-73
2022/03/25 05:37:51;;;;;;;54.90;35.47;;;;;;;2.29;100.00;103120.63;6215891;23;20378;-73
2022/03/25 05:40:23;;;;;;;56.83;34.75;;;;;;;2.29;100.00;103119.72;6203087;23;20039;-73
2022/03/25 05:42:52;;;;;;;55.40;34.22;;;;;;;2.30;100.00;103124.13;6215464;23;20013;-73
2022/03/25 05:45:22;;;;;;;55.67;34.42;;;;;;;2.32;100.00;103132.94;6214045;23;20221;-74
2022/03/25 05:47:51;;;;;;;51.33;33.22;;;;;;;2.34;100.00;103123.53;6192534;23;20020;-74
2022/03/25 05:50:20;;;;;;;52.08;32.63;;;;;;;2.34;100.00;103124.47;6210021;23;20016;-74
2022/03/25 05:52:49;;;;;;;57.25;34.55;;;;;;;2.37;100.00;103135.88;6191641;23;20016;-74
2022/03/25 05:55:18;;;;;;;56.72;35.85;;;;;;;2.39;100.00;103124.78;6215034;23;20017;-73
2022/03/25 05:57:46;;;;;;;54.03;34.40;;;;;;;2.40;100.00;103139.63;6154978;23;20021;-74
2022/03/25 06:00:15;;;;;;;57.67;35.70;;;;;;;2.42;100.00;103137.09;6212097;23;20032;-74
2022/03/25 06:02:45;;;;;;;55.45;34.33;;;;;;;2.44;100.00;103135.50;6151700;23;20017;-73
2022/03/25 06:05:14;;;;;;;56.33;37.15;;;;;;;2.48;100.00;103148.88;6235750;23;20023;-73
2022/03/25 06:07:44;;;;;;;57.78;36.13;;;;;;;2.52;100.00;103145.72;6193786;23;20020;-73
2022/03/25 06:10:14;;;;;;;59.23;34.70;;;;;;;2.57;100.00;103148.66;6196937;23;20020;-73
2022/03/25 06:12:42;;;;;;;58.15;37.80;;;;;;;2.60;100.00;103140.16;6182148;23;20715;-73
2022/03/25 06:15:11;;;;;;;62.42;38.17;;;;;;;2.65;100.00;103142.31;6246241;23;20286;-73
2022/03/25 06:17:45;;;;;;;60.65;38.10;;;;;;;2.70;100.00;103145.22;6248103;23;20016;-73
2022/03/25 06:20:18;;;;;;;61.78;38.05;;;;;;;2.76;100.00;103150.91;6217169;23;20020;-73
2022/03/25 06:22:47;;;;;;;57.33;37.80;;;;;;;2.82;100.00;103156.53;6244541;23;20459;-73
2022/03/25 06:25:17;;;;;;;64.65;38.75;;;;;;;2.88;100.00;103163.88;6171288;23;20401;-73
2022/03/25 06:28:00;;;;;;;61.10;37.42;;;;;;;2.97;100.00;103166.22;6232483;23;20027;-73
2022/03/25 06:30:34;;;;;;;62.10;37.63;;;;;;;3.04;100.00;103171.97;6196639;23;20016;-73
2022/03/25 06:33:06;;;;;;;61.22;38.30;;;;;;;3.12;100.00;103164.72;6216583;23;20027;-73
2022/03/25 06:35:36;;;;;;;61.72;38.17;;;;;;;3.23;100.00;103165.47;6219149;23;20413;-73
2022/03/25 06:38:06;;;;;;;40.97;26.17;;;;;;;3.31;100.00;103165.22;6181386;23;20024;-73
2022/03/25 06:40:35;;;;;;;51.95;34.30;;;;;;;3.41;100.00;103166.75;6224167;23;20027;-73
2022/03/25 06:43:04;;;;;;;57.63;37.28;;;;;;;3.50;100.00;103167.41;6180111;23;20695;-73
2022/03/25 06:45:34;;;;;;;57.20;35.67;;;;;;;3.61;100.00;103175.03;6184506;23;20358;-73
2022/03/25 06:48:03;;;;;;;50.47;33.08;;;;;;;3.73;100.00;103173.28;6194698;23;20657;-73
2022/03/25 06:50:32;;;;;;;54.83;35.92;;;;;;;3.84;100.00;103174.94;6185131;23;20020;-73
2022/03/25 06:53:02;;;;;;;49.65;33.85;;;;;;;4.02;100.00;103179.56;6185652;23;20365;-73
2022/03/25 06:55:32;;;;;;;54.97;34.80;;;;;;;4.22;100.00;103179.22;6215740;23;20626;-73
2022/03/25 06:58:00;;;;;;;57.63;34.65;;;;;;;4.46;100.00;103179.00;6205671;23;20016;-73
2022/03/25 07:00:29;;;;;;;51.42;32.17;;;;;;;4.73;100.00;103179.00;6159407;23;20355;-73
2022/03/25 07:02:58;;;;;;;44.65;32.88;;;;;;;5.08;100.00;103182.16;6243748;23;20020;-73
2022/03/25 07:05:30;;;;;;;50.03;32.63;;;;;;;5.55;100.00;103179.78;6214076;23;20297;-75
2022/03/25 07:07:58;;;;;;;47.88;30.02;;;;;;;6.05;100.00;103180.22;6243916;23;20350;-76
2022/03/25 07:10:27;;;;;;;42.55;26.98;;;;;;;6.59;100.00;103180.72;6166846;23;20332;-76
2022/03/25 07:12:56;;;;;;;38.78;27.15;;;;;;;7.21;100.00;103178.88;6184539;23;20012;-76
2022/03/25 07:15:25;;;;;;;39.00;27.52;;;;;;;7.76;100.00;103180.91;6167102;23;20047;-76
2022/03/25 07:17:53;;;;;;;35.90;26.75;;;;;;;8.30;100.00;103179.31;6222828;23;20020;-75
2022/03/25 07:20:27;;;;;;;34.70;23.90;;;;;;;8.76;100.00;103188.56;6215036;23;20304;-77
2022/03/25 07:22:56;;;;;;;34.35;25.98;;;;;;;9.14;100.00;103184.22;6194003;23;20468;-77
2022/03/25 07:25:25;;;;;;;31.35;23.95;;;;;;;9.37;100.00;103185.25;6237544;23;20024;-75
2022/03/25 07:27:54;;;;;;;33.92;24.63;;;;;;;9.62;100.00;103186.38;6201337;23;20016;-74
2022/03/25 07:30:22;;;;;;;29.52;21.25;;;;;;;9.90;100.00;103184.09;6168957;23;20228;-75
2022/03/25 07:32:51;;;;;;;31.70;22.00;;;;;;;10.21;100.00;103184.50;6214498;23;20016;-74
2022/03/25 07:35:22;;;;;;;;;;;;;;;10.46;100.00;103183.84;6208778;23;20134;-75
2022/03/25 07:37:50;;;;;;;28.27;20.77;;;;;;;10.54;100.00;103188.59;6180445;23;20245;-74
2022/03/25 07:40:19;;;;;;;27.75;20.80;;;;;;;10.57;100.00;103190.47;6163261;23;20024;-74
2022/03/25 07:42:47;;;;;;;27.83;21.75;;;;;;;10.68;100.00;103190.88;6172778;23;20019;-74
2022/03/25 07:45:19;;;;;;;27.42;21.00;;;;;;;10.91;100.00;103200.63;6190435;23;20046;-74
2022/03/25 07:47:49;;;;;;;27.52;21.65;;;;;;;11.17;100.00;103205.09;6158728;23;20020;-74
2022/03/25 07:50:20;;;;;;;27.97;19.80;;;;;;;11.40;100.00;103203.31;6203535;23;20571;-74
2022/03/25 07:52:50;;;;;;;26.58;19.50;;;;;;;11.65;100.00;103213.06;6216871;23;20020;-76
2022/03/25 07:55:20;;;;;;;26.23;19.58;;;;;;;11.78;100.00;103214.44;6235944;23;20020;-75
2022/03/25 07:57:50;;;;;;;27.92;19.52;;;;;;;11.88;100.00;103222.72;6222433;23;20027;-75
2022/03/25 08:00:19;;;;;;;27.88;20.83;;;;;;;12.04;100.00;103213.63;6198616;23;20353;-75
2022/03/25 08:02:52;;;;;;;25.55;19.38;;;;;;;12.25;100.00;103228.44;6180799;23;20031;-75
2022/03/25 08:05:21;;;;;;;23.75;18.35;;;;;;;12.40;99.56;103221.03;6240184;23;20127;-75
2022/03/25 08:07:54;;;;;;;25.30;19.75;;;;;;;12.61;100.00;103220.84;6221122;23;20027;-75
2022/03/25 08:10:26;;;;;;;26.73;18.65;;;;;;;12.88;100.00;103223.44;6184860;23;20261;-75
2022/03/25 08:12:56;;;;;;;24.30;18.67;;;;;;;13.09;99.46;103226.72;6217210;23;20047;-75
2022/03/25 08:15:27;;;;;;;22.88;17.30;;;;;;;13.12;96.64;103227.72;6240906;23;20028;-75
2022/03/25 08:18:01;;;;;;;20.98;16.40;;;;;;;13.18;92.92;103238.50;6228499;23;20027;-75
2022/03/25 08:20:36;;;;;;;21.13;17.15;;;;;;;13.23;88.66;103236.91;6215586;23;20369;-75
2022/03/25 08:23:12;;;;;;;21.00;16.42;;;;;;;13.17;89.43;103235.78;6216688;23;20020;-75
2022/03/25 08:28:28;;;;;;;24.88;17.95;;;;;;;13.27;89.40;103238.78;6222486;23;20031;-75
2022/03/25 08:31:02;;;;;;;26.38;21.42;;;;;;;13.29;88.75;103243.22;6187749;23;20027;-75
2022/03/25 08:33:30;;;;;;;25.30;18.80;;;;;;;13.22;87.84;103234.19;6177134;23;20230;-75
2022/03/25 08:35:59;;;;;;;24.23;19.42;;;;;;;13.02;85.50;103246.81;6216609;23;20031;-75
2022/03/25 08:38:28;;;;;;;26.80;19.60;;;;;;;12.86;85.16;103235.75;6216290;23;20024;-75
2022/03/25 08:40:56;;;;;;;26.42;19.58;;;;;;;12.82;85.98;103249.72;6250006;23;20349;-75
2022/03/25 08:43:36;;;;;;;23.65;19.10;;;;;;;12.82;84.65;103238.25;6209708;23;20365;-75
2022/03/25 08:46:07;;;;;;;26.52;20.92;;;;;;;12.86;83.75;103245.44;6243164;23;20361;-75
2022/03/25 08:48:37;;;;;;;28.33;20.08;;;;;;;12.84;83.39;103253.31;6194285;23;20365;-75
2022/03/25 08:51:07;;;;;;;25.67;20.63;;;;;;;12.89;82.58;103248.16;6215528;23;20476;-75
2022/03/25 08:53:36;;;;;;;30.30;20.35;;;;;;;12.89;81.51;103245.50;6186469;23;20016;-75
2022/03/25 08:56:04;;;;;;;29.65;19.85;;;;;;;12.96;79.78;103251.91;6190757;23;20023;-75
2022/03/25 08:58:33;;;;;;;27.65;20.70;;;;;;;12.95;79.60;103248.38;6188262;23;20031;-75
2022/03/25 09:01:02;;;;;;;30.15;20.38;;;;;;;12.97;79.67;103241.38;6244883;23;20046;-75
2022/03/25 09:03:32;;;;;;;28.48;21.25;;;;;;;13.10;79.96;103240.03;6201538;23;20514;-75
2022/03/25 09:06:00;;;;;;;26.77;20.90;;;;;;;13.11;78.14;103244.44;6161199;23;20027;-77
2022/03/25 09:08:34;;;;;;;28.33;21.10;;;;;;;13.13;78.11;103250.69;6187655;23;20036;-76
2022/03/25 09:11:03;;;;;;;29.77;20.75;;;;;;;13.20;76.33;103257.97;6171448;23;20025;-77
2022/03/25 09:13:32;;;;;;;30.65;20.52;;;;;;;13.16;75.06;103250.78;6186425;23;20442;-76
2022/03/25 09:16:00;;;;;;;27.45;21.65;;;;;;;13.17;75.77;103254.31;6204630;23;20013;-77
2022/03/25 09:18:29;;;;;;;30.13;21.17;;;;;;;13.19;74.95;103256.16;6194365;23;20231;-77
2022/03/25 09:20:58;;;;;;;28.25;20.27;;;;;;;13.13;74.17;103260.38;6147870;23;20451;-77
2022/03/25 09:23:26;;;;;;;28.52;20.60;;;;;;;13.00;75.20;103256.44;6180884;23;20036;-76
2022/03/25 09:25:55;;;;;;;25.95;20.90;;;;;;;12.88;75.19;103255.22;6188449;23;20017;-77
2022/03/25 09:28:23;;;;;;;30.95;20.63;;;;;;;12.75;75.97;103260.94;6202945;23;20017;-77
2022/03/25 09:30:51;;;;;;;26.98;20.48;;;;;;;12.67;76.76;103266.00;6182286;23;20451;-75
2022/03/25 09:33:20;;;;;;;32.72;22.92;;;;;;;12.61;77.93;103254.34;6168063;23;20028;-77
2022/03/25 09:35:48;;;;;;;30.67;21.40;;;;;;;12.52;78.00;103264.59;6204435;23;20017;-76
2022/03/25 09:38:17;;;;;;;28.23;21.50;;;;;;;12.40;78.09;103260.69;6206939;23;20378;-77
2022/03/25 09:40:47;;;;;;;27.55;21.83;;;;;;;12.38;79.44;103259.75;6199050;23;20310;-77
2022/03/25 09:43:18;;;;;;;27.45;20.88;;;;;;;12.33;80.09;103255.13;6179929;23;20324;-77
2022/03/25 09:45:47;;;;;;;29.55;22.83;;;;;;;12.28;80.03;103249.69;6184640;23;20032;-74
2022/03/25 09:48:16;;;;;;;31.52;21.63;;;;;;;12.30;80.89;103255.91;6135862;23;20396;-77
2022/03/25 09:50:44;;;;;;;27.70;18.45;;;;;;;12.31;77.41;103260.38;6207476;23;20481;-76
2022/03/25 09:53:32;;;;;;;29.77;17.85;;;;;;;12.32;78.22;103251.56;6181208;23;20249;-76
2022/03/25 09:56:01;;;;;;;28.35;19.70;;;;;;;12.36;77.52;103257.88;6149685;23;20048;-77
2022/03/25 09:58:29;;;;;;;28.58;17.75;;;;;;;12.41;75.77;103253.66;6161618;23;20351;-77
2022/03/25 10:00:59;;;;;;;27.25;17.60;;;;;;;12.39;73.29;103253.59;6172428;23;20150;-76
2022/03/25 10:03:36;;;;;;;24.45;16.67;;;;;;;12.40;72.26;103254.47;6163683;23;20025;-77
2022/03/25 10:06:11;;;;;;;25.65;16.90;;;;;;;12.41;72.15;103251.91;6204930;23;20362;-76
2022/03/25 10:08:54;;;;;;;22.90;15.20;;;;;;;12.41;72.58;103251.91;6208633;23;20058;-76
2022/03/25 10:11:30;;;;;;;23.15;15.98;;;;;;;12.44;71.33;103248.47;6216035;23;20016;-76
2022/03/25 10:14:14;;;;;;;23.80;14.80;;;;;;;12.48;69.26;103245.97;6204503;23;20230;-77
2022/03/25 10:16:45;;;;;;;28.40;17.00;;;;;;;12.50;69.22;103253.06;6207842;23;20024;-76
2022/03/25 10:19:19;;;;;;;21.80;14.55;;;;;;;12.48;68.33;103258.31;6180507;23;20017;-77
2022/03/25 10:22:15;;;;;;;20.70;14.93;;;;;;;12.53;66.63;103256.69;6193508;23;20225;-76
2022/03/25 10:24:53;;;;;;;22.50;14.05;;;;;;;12.61;68.52;103252.56;6194851;23;20375;-77
2022/03/25 10:27:24;;;;;;;23.88;14.43;;;;;;;12.73;68.55;103256.47;6217930;23;20025;-77
2022/03/25 10:29:55;;;;;;;;;;;;;;;12.80;62.75;103261.13;6177887;23;20608;-77
2022/03/25 10:32:27;;;;;;;30.35;15.35;;;;;;;12.81;67.67;103254.97;6215723;23;19916;-76
2022/03/25 10:35:10;;;;;;;23.77;16.73;;;;;;;12.83;68.74;103259.44;6185570;23;20248;-76
2022/03/25 10:37:57;;;;;;;25.15;17.10;;;;;;;12.81;67.82;103263.78;6207100;23;20031;-76
2022/03/25 10:40:28;;;;;;;26.33;16.77;;;;;;;12.77;69.24;103267.19;6176061;23;20035;-77
2022/03/25 10:43:09;;;;;;;23.20;14.82;;;;;;;12.72;66.66;103265.25;6185620;23;20249;-76
2022/03/25 10:45:42;;;;;;;24.70;15.80;;;;;;;12.72;66.98;103268.81;6212466;23;20020;-77
2022/03/25 10:48:16;;;;;;;29.02;16.80;;;;;;;12.78;67.73;103269.00;6211907;23;20621;-77
2022/03/25 10:51:03;;;;;;;27.55;17.15;;;;;;;12.81;66.85;103261.16;6194215;23;20644;-77
2022/03/25 10:53:35;;;;;;;25.92;16.77;;;;;;;12.84;68.26;103260.38;6209075;23;20027;-77
2022/03/25 10:56:10;;;;;;;24.02;17.65;;;;;;;12.92;68.55;103263.25;6188908;23;20012;-77
2022/03/25 10:58:50;;;;;;;28.45;18.10;;;;;;;12.99;67.19;103267.91;6182755;23;20035;-77
2022/03/25 11:01:19;;;;;;;36.08;19.80;;;;;;;13.03;68.86;103265.38;6216136;23;20024;-77
2022/03/25 11:03:49;;;;;;;25.50;18.27;;;;;;;13.14;67.85;103267.50;6207220;23;20174;-77
2022/03/25 11:06:19;;;;;;;24.85;15.95;;;;;;;13.14;65.68;103265.72;6163903;23;20092;-76
2022/03/25 11:08:48;;;;;;;19.23;15.03;;;;;;;13.17;64.81;103265.81;6211719;23;20016;-77
2022/03/25 11:11:17;;;;;;;24.10;16.13;;;;;;;13.19;64.26;103272.03;6209858;23;20023;-76
2022/03/25 11:13:47;;;;;;;23.90;16.08;;;;;;;13.25;65.16;103272.25;6213651;23;20023;-76
2022/03/25 11:16:18;;;;;;;23.77;15.23;;;;;;;13.28;65.02;103266.16;6184110;23;20197;-76
2022/03/25 11:18:50;;;;;;;27.25;17.73;;;;;;;13.31;64.61;103275.97;6192143;23;20464;-76
2022/03/25 11:21:20;;;;;;;27.63;16.38;;;;;;;13.32;63.39;103272.47;6190195;23;20250;-76
2022/03/25 11:23:52;;;;;;;21.40;12.50;;;;;;;13.31;59.61;103273.31;6187424;23;20027;-76
2022/03/25 11:26:23;;;;;;;21.42;13.80;;;;;;;13.22;58.06;103279.22;6212424;23;20008;-76
2022/03/25 11:29:00;;;;;;;22.73;12.45;;;;;;;13.15;56.45;103270.16;6212697;23;20027;-76